Time;durP1;ratioP1;P1;durP2;ratioP2;P2;SDS_P1;SDS_P2;PMS_P1;PMS_P2;Temp;Humidity;BMP_temperature;BMP_pressure;BME280_temperature;BME280_humidity;BME280_pressure;Samples;Min_cycle;Max_cycle;Signal;HPM_P1;HPM_P2
2021/12/10 00:01:15;;;;;;;102.90;34.50;;;;;;;1.60;100.00;99534.91;7397043;19;20437;-43
2021/12/10 00:03:47;;;;;;;100.85;35.25;;;;;;;1.40;100.00;99532.88;7402522;19;20376;-42
2021/12/10 00:06:20;;;;;;;101.63;34.75;;;;;;;1.56;100.00;99529.56;7395595;19;20196;-42
2021/12/10 00:08:55;;;;;;;106.35;34.40;;;;;;;1.48;100.00;99529.13;7400460;19;20123;-42
2021/12/10 00:11:27;;;;;;;93.97;34.20;;;;;;;1.54;100.00;99523.53;7396926;19;20581;-42
2021/12/10 00:13:57;;;;;;;92.28;34.63;;;;;;;1.25;100.00;99520.16;7402066;19;20410;-42
2021/12/10 00:16:27;;;;;;;107.65;35.90;;;;;;;1.24;100.00;99510.78;7395126;19;20556;-45
2021/12/10 00:19:10;;;;;;;106.27;35.60;;;;;;;1.39;100.00;99501.50;7399954;19;20459;-44
2021/12/10 00:21:40;;;;;;;101.55;36.60;;;;;;;1.48;100.00;99509.66;7396199;19;20423;-44
2021/12/10 00:24:13;;;;;;;99.05;34.30;;;;;;;1.63;100.00;99508.78;7401656;19;20123;-44
2021/12/10 00:26:42;;;;;;;100.30;36.17;;;;;;;1.73;100.00;99510.19;7393830;19;20197;-44
2021/12/10 00:29:12;;;;;;;103.68;36.20;;;;;;;1.79;100.00;99500.38;7401834;19;20183;-47
2021/12/10 00:31:47;;;;;;;100.07;33.78;;;;;;;1.87;100.00;99503.38;7396167;19;20188;-47
2021/12/10 00:34:24;;;;;;;92.97;35.17;;;;;;;1.42;100.00;99488.97;7401278;19;20115;-45
2021/12/10 00:36:55;;;;;;;109.43;38.45;;;;;;;1.33;100.00;99483.38;7403401;19;20442;-45
2021/12/10 00:39:30;;;;;;;110.15;38.30;;;;;;;1.47;100.00;99482.50;7393822;19;20123;-45
2021/12/10 00:42:03;;;;;;;100.53;34.53;;;;;;;1.39;100.00;99491.31;7404845;19;20186;-43
2021/12/10 00:44:32;;;;;;;87.50;33.67;;;;;;;0.97;100.00;99488.03;7395925;19;20392;-47
2021/12/10 00:47:03;;;;;;;90.25;32.97;;;;;;;0.99;100.00;99477.19;7395427;19;20161;-44
2021/12/10 00:49:35;;;;;;;97.45;35.92;;;;;;;0.82;100.00;99477.81;7395901;19;20170;-43
2021/12/10 00:52:06;;;;;;;90.35;33.90;;;;;;;1.00;100.00;99473.84;7400316;19;20127;-42
2021/12/10 00:54:38;;;;;;;105.13;34.85;;;;;;;1.00;100.00;99483.13;7395773;19;20459;-42
2021/12/10 00:57:09;;;;;;;93.50;33.85;;;;;;;1.00;100.00;99472.94;7398746;19;20174;-42
2021/12/10 00:59:39;;;;;;;95.47;34.58;;;;;;;1.09;100.00;99468.44;7393840;19;20115;-44
2021/12/10 01:02:11;;;;;;;110.63;35.75;;;;;;;1.01;100.00;99465.44;7399953;19;20127;-45
2021/12/10 01:04:44;;;;;;;111.97;34.72;;;;;;;1.19;100.00;99464.78;7393768;19;20514;-44
2021/12/10 01:07:17;;;;;;;104.35;34.38;;;;;;;1.29;100.00;99458.56;7398817;19;20169;-44
2021/12/10 01:09:52;;;;;;;95.72;34.80;;;;;;;1.39;100.00;99458.28;7394744;19;20194;-46
2021/12/10 01:12:27;;;;;;;104.55;35.00;;;;;;;1.50;100.00;99451.28;7400036;19;20119;-44
2021/12/10 01:15:20;;;;;;;91.30;34.00;;;;;;;1.28;100.00;99450.03;7394778;19;20225;-46
2021/12/10 01:26:25;;;;;;;100.90;33.13;;;;;;;1.60;100.00;99442.53;7394085;19;20474;-43
2021/12/10 01:28:57;;;;;;;105.45;33.45;;;;;;;1.84;100.00;99447.25;7399617;19;20130;-43
2021/12/10 01:31:28;;;;;;;102.93;35.80;;;;;;;1.92;100.00;99440.91;7393789;19;20190;-44
2021/12/10 01:33:57;;;;;;;81.10;31.05;;;;;;;1.94;100.00;99435.91;7399595;19;20425;-47
2021/12/10 01:36:27;;;;;;;99.93;33.55;;;;;;;1.52;100.00;99436.09;7392533;19;20194;-47
2021/12/10 01:38:56;;;;;;;95.43;34.23;;;;;;;1.61;100.00;99426.47;7398082;19;20387;-43
2021/12/10 01:41:34;;;;;;;98.43;33.77;;;;;;;1.67;100.00;99421.72;7393000;19;20423;-50
2021/12/10 01:44:14;;;;;;;96.07;33.58;;;;;;;1.93;100.00;99422.31;7398832;19;20396;-45
2021/12/10 01:46:44;;;;;;;88.25;34.08;;;;;;;1.82;100.00;99414.09;7391958;19;20636;-44
2021/12/10 01:49:15;;;;;;;81.50;34.13;;;;;;;1.66;100.00;99411.47;7399198;19;20203;-43
2021/12/10 01:51:47;;;;;;;97.82;34.08;;;;;;;1.68;100.00;99410.75;7394117;19;20411;-42
2021/12/10 01:54:27;;;;;;;103.50;34.38;;;;;;;1.93;100.00;99395.97;7398811;19;20115;-43
2021/12/10 01:57:02;;;;;;;85.38;32.15;;;;;;;1.95;100.00;99385.09;7396890;19;20855;-44
2021/12/10 01:59:38;;;;;;;89.47;32.63;;;;;;;1.58;100.00;99390.69;7390858;19;20118;-46
2021/12/10 02:02:12;;;;;;;83.63;33.30;;;;;;;1.50;100.00;99386.84;7398075;19;20399;-44
2021/12/10 02:04:43;;;;;;;92.97;32.87;;;;;;;2.00;100.00;99380.28;7394483;19;20615;-46
2021/12/10 02:07:15;;;;;;;96.57;33.87;;;;;;;1.68;100.00;99385.34;7397050;19;20462;-46
2021/12/10 02:09:44;;;;;;;80.50;32.87;;;;;;;1.45;100.00;99392.53;7394166;19;20446;-44
2021/12/10 02:12:18;;;;;;;94.72;33.30;;;;;;;1.39;100.00;99387.09;7398189;19;20442;-44
2021/12/10 02:14:56;;;;;;;89.80;32.10;;;;;;;1.51;100.00;99386.06;7393257;19;20238;-47
2021/12/10 02:17:26;;;;;;;87.18;31.40;;;;;;;1.26;100.00;99384.66;7395462;19;20420;-45
2021/12/10 02:19:55;;;;;;;84.53;31.17;;;;;;;1.25;100.00;99373.63;7391945;19;20184;-43
2021/12/10 02:22:27;;;;;;;90.55;32.80;;;;;;;1.32;100.00;99374.84;7398046;19;20119;-44
2021/12/10 02:24:57;;;;;;;84.87;31.10;;;;;;;1.26;100.00;99374.50;7392602;19;20273;-44
2021/12/10 02:27:26;;;;;;;90.80;31.80;;;;;;;1.42;100.00;99371.16;7396065;19;20408;-45
2021/12/10 02:29:56;;;;;;;91.32;31.60;;;;;;;1.61;100.00;99368.00;7392539;19;20187;-44
2021/12/10 02:32:26;;;;;;;94.28;33.05;;;;;;;1.51;100.00;99371.69;7398076;19;20123;-44
2021/12/10 02:34:56;;;;;;;88.33;34.13;;;;;;;1.69;100.00;99366.75;7392017;19;20269;-45
2021/12/10 02:37:28;;;;;;;86.57;31.97;;;;;;;1.86;100.00;99354.06;7395136;19;20435;-43
2021/12/10 02:39:57;;;;;;;88.28;34.35;;;;;;;1.83;100.00;99351.34;7390834;19;20396;-49
2021/12/10 02:42:27;;;;;;;87.20;30.75;;;;;;;1.53;100.00;99353.97;7397465;19;20127;-43
2021/12/10 02:44:56;;;;;;;86.10;32.87;;;;;;;1.54;100.00;99353.19;7392056;19;20250;-45
2021/12/10 02:47:26;;;;;;;95.23;33.77;;;;;;;1.75;100.00;99351.81;7395390;19;20415;-44
2021/12/10 02:49:55;;;;;;;86.07;32.30;;;;;;;1.51;100.00;99358.09;7392023;19;20438;-43
2021/12/10 02:52:28;;;;;;;88.47;33.20;;;;;;;1.39;100.00;99346.44;7395972;19;20451;-44
2021/12/10 02:54:58;;;;;;;83.22;30.70;;;;;;;1.31;100.00;99347.69;7388462;19;20410;-43
2021/12/10 02:57:29;;;;;;;90.50;31.37;;;;;;;1.23;100.00;99359.09;7395050;19;20155;-48
2021/12/10 02:59:59;;;;;;;78.60;31.60;;;;;;;1.34;100.00;99358.03;7391242;19;20486;-44
2021/12/10 03:02:28;;;;;;;87.97;31.52;;;;;;;1.46;100.00;99358.72;7396869;19;20398;-48
2021/12/10 03:04:58;;;;;;;78.65;31.08;;;;;;;1.73;100.00;99343.22;7391744;19;21098;-45
2021/12/10 03:07:30;;;;;;;85.47;31.75;;;;;;;1.69;100.00;99348.94;7394891;19;20155;-45
2021/12/10 03:10:00;;;;;;;79.65;31.00;;;;;;;1.81;100.00;99345.31;7391844;19;20186;-43
2021/12/10 03:12:31;;;;;;;72.38;28.70;;;;;;;1.82;100.00;99347.94;7402469;19;20119;-48
2021/12/10 03:15:01;;;;;;;82.83;29.60;;;;;;;1.57;100.00;99340.63;7398768;19;20186;-46
2021/12/10 03:17:33;;;;;;;75.83;29.23;;;;;;;1.92;100.00;99339.16;7401580;19;20483;-47
2021/12/10 03:20:03;;;;;;;75.45;29.30;;;;;;;1.85;100.00;99337.06;7397627;19;20423;-45
2021/12/10 03:22:36;;;;;;;167.43;64.95;;;;;;;1.55;100.00;99339.69;7403657;19;20197;-44
2021/12/10 03:25:07;;;;;;;84.43;29.63;;;;;;;1.63;100.00;99340.13;7397648;19;20246;-43
2021/12/10 03:27:37;;;;;;;110.30;34.03;;;;;;;1.51;100.00;99337.75;7401416;19;20158;-46
2021/12/10 03:30:09;;;;;;;134.00;48.73;;;;;;;1.37;100.00;99337.88;7397575;19;20471;-43
2021/12/10 03:32:41;;;;;;;94.40;37.40;;;;;;;1.38;100.00;99343.84;7402720;19;20388;-45
2021/12/10 03:35:14;;;;;;;91.70;34.42;;;;;;;1.67;100.00;99332.72;7398509;19;20479;-42
2021/12/10 03:37:47;;;;;;;91.55;33.35;;;;;;;1.72;100.00;99335.50;7401576;19;20163;-43
2021/12/10 03:40:20;;;;;;;93.13;34.83;;;;;;;1.69;100.00;99340.44;7397056;19;20189;-42
2021/12/10 03:42:53;;;;;;;88.35;31.40;;;;;;;1.53;100.00;99333.66;7402902;19;20171;-44
2021/12/10 03:45:22;;;;;;;79.60;30.10;;;;;;;1.35;100.00;99339.44;7397126;19;20246;-43
2021/12/10 03:47:52;;;;;;;87.45;32.33;;;;;;;1.43;100.00;99342.44;7401222;19;20154;-44
2021/12/10 03:50:25;;;;;;;89.38;33.15;;;;;;;1.41;100.00;99344.00;7396420;19;20444;-44
2021/12/10 03:52:57;;;;;;;90.95;32.78;;;;;;;1.33;100.00;99341.03;7402616;19;20126;-44
2021/12/10 03:55:27;;;;;;;87.22;29.92;;;;;;;1.34;100.00;99341.09;7396848;19;20265;-44
2021/12/10 03:57:57;;;;;;;80.88;30.70;;;;;;;1.14;100.00;99329.84;7400650;19;20155;-44
2021/12/10 04:00:30;;;;;;;82.68;31.23;;;;;;;1.01;100.00;99327.38;7396294;19;20195;-44
2021/12/10 04:03:01;;;;;;;84.43;30.20;;;;;;;1.10;100.00;99332.97;7402576;19;20138;-47
2021/12/10 04:05:31;;;;;;;92.97;30.70;;;;;;;1.02;100.00;99331.69;7396121;19;20585;-47
2021/12/10 04:08:03;;;;;;;84.90;30.95;;;;;;;1.01;100.00;99324.81;7399488;19;20158;-50
2021/12/10 04:10:33;;;;;;;76.50;30.08;;;;;;;1.02;100.00;99331.69;7395998;19;20186;-43
2021/12/10 04:13:02;;;;;;;85.25;31.02;;;;;;;0.91;100.00;99321.78;7402344;19;20123;-43
2021/12/10 04:15:34;;;;;;;80.90;29.98;;;;;;;0.98;100.00;99320.47;7395725;19;20477;-44
2021/12/10 04:18:05;;;;;;;86.85;32.65;;;;;;;1.06;100.00;99325.97;7399971;19;20166;-44
2021/12/10 04:20:35;;;;;;;89.45;29.83;;;;;;;0.93;100.00;99324.41;7396227;19;20190;-43
2021/12/10 04:23:11;;;;;;;84.85;31.25;;;;;;;1.13;100.00;99328.06;7399236;19;20133;-43
2021/12/10 04:25:41;;;;;;;84.65;32.95;;;;;;;1.24;100.00;99320.19;7395869;19;20586;-44
2021/12/10 04:28:14;;;;;;;83.10;29.95;;;;;;;1.17;100.00;99318.94;7398105;19;20155;-47
2021/12/10 04:30:46;;;;;;;80.28;28.35;;;;;;;1.02;100.00;99318.97;7398344;19;20250;-42
2021/12/10 04:33:17;;;;;;;79.40;30.40;;;;;;;0.93;100.00;99304.94;7402229;19;20127;-47
2021/12/10 04:35:48;;;;;;;75.95;28.80;;;;;;;0.85;100.00;99300.22;7395496;19;20246;-48
2021/12/10 04:38:21;;;;;;;79.90;30.38;;;;;;;1.01;100.00;99305.38;7399341;19;20156;-46
2021/12/10 04:40:52;;;;;;;79.35;28.08;;;;;;;0.99;100.00;99304.44;7395226;19;20190;-43
2021/12/10 04:43:23;;;;;;;79.55;29.60;;;;;;;1.13;100.00;99302.66;7400950;19;20125;-46
2021/12/10 04:45:54;;;;;;;76.45;29.05;;;;;;;1.26;100.00;99300.81;7395268;19;20250;-42
2021/12/10 04:48:24;;;;;;;74.97;30.73;;;;;;;1.29;100.00;99313.69;7397653;19;20458;-47
2021/12/10 04:50:54;;;;;;;84.70;30.45;;;;;;;1.23;100.00;99298.97;7395349;19;20190;-45
2021/12/10 04:53:26;;;;;;;81.50;29.13;;;;;;;1.12;100.00;99294.97;7401103;19;20449;-46
2021/12/10 04:55:56;;;;;;;84.88;30.95;;;;;;;1.45;100.00;99298.47;7394769;19;20186;-44
2021/12/10 04:58:25;;;;;;;78.40;28.77;;;;;;;1.54;100.00;99298.13;7398634;19;20154;-45
2021/12/10 05:00:55;;;;;;;73.93;28.98;;;;;;;1.72;100.00;99299.91;7394039;19;20200;-45
2021/12/10 05:03:24;;;;;;;81.13;29.47;;;;;;;1.68;100.00;99290.34;7398825;19;20144;-45
2021/12/10 05:06:00;;;;;;;76.75;28.80;;;;;;;1.52;100.00;99286.09;7394720;19;20944;-48
2021/12/10 05:08:32;;;;;;;75.68;29.45;;;;;;;1.25;100.00;99292.31;7399845;19;20122;-44
2021/12/10 05:11:02;;;;;;;66.05;26.48;;;;;;;1.27;100.00;99287.34;7395103;19;20211;-45
2021/12/10 05:13:32;;;;;;;75.67;28.63;;;;;;;1.17;100.00;99286.81;7400097;19;20167;-46
2021/12/10 05:16:02;;;;;;;69.33;26.80;;;;;;;1.13;100.00;99286.56;7393702;19;20748;-44
2021/12/10 05:18:35;;;;;;;74.30;28.13;;;;;;;1.02;100.00;99283.41;7399644;19;20458;-49
2021/12/10 05:21:06;;;;;;;70.80;27.52;;;;;;;0.97;100.00;99269.56;7392864;19;20435;-43
2021/12/10 05:23:39;;;;;;;77.82;28.75;;;;;;;1.47;100.00;99262.97;7399474;19;20119;-46
2021/12/10 05:26:10;;;;;;;78.43;28.20;;;;;;;1.67;100.00;99276.78;7393421;19;20495;-45
2021/12/10 05:28:39;;;;;;;69.80;26.65;;;;;;;1.25;100.00;99272.00;7399437;19;20849;-43
2021/12/10 05:31:10;;;;;;;74.95;28.13;;;;;;;1.61;100.00;99258.66;7394056;19;20182;-45
2021/12/10 05:33:39;;;;;;;68.63;28.58;;;;;;;1.44;100.00;99258.59;7398695;19;20254;-50
2021/12/10 05:36:09;;;;;;;60.63;26.70;;;;;;;1.35;100.00;99263.19;7393008;19;20186;-45
2021/12/10 05:38:41;;;;;;;66.93;28.33;;;;;;;1.37;100.00;99255.66;7397720;19;20387;-45
2021/12/10 05:41:12;;;;;;;67.15;27.02;;;;;;;1.33;100.00;99249.53;7393112;19;20245;-42
2021/12/10 05:43:43;;;;;;;64.57;26.10;;;;;;;1.45;100.00;99250.19;7399258;19;20127;-44
2021/12/10 05:46:15;;;;;;;59.92;26.90;;;;;;;1.23;100.00;99254.91;7392637;19;20491;-43
2021/12/10 05:48:46;;;;;;;66.35;26.08;;;;;;;1.67;100.00;99245.38;7399481;19;20142;-48
2021/12/10 05:51:16;;;;;;;76.23;26.60;;;;;;;1.62;100.00;99247.69;7393524;19;20290;-47
2021/12/10 05:53:48;;;;;;;76.97;29.13;;;;;;;1.64;100.00;99245.22;7398400;19;20660;-48
2021/12/10 05:56:19;;;;;;;73.07;27.13;;;;;;;1.66;100.00;99239.44;7391698;19;20186;-45
2021/12/10 05:58:49;;;;;;;76.73;27.03;;;;;;;1.42;100.00;99232.25;7398693;19;20447;-45
2021/12/10 06:01:20;;;;;;;68.00;26.05;;;;;;;1.38;100.00;99222.69;7392155;19;20444;-47
2021/12/10 06:03:54;;;;;;;71.90;27.07;;;;;;;1.57;100.00;99228.75;7398897;19;20116;-45
2021/12/10 06:06:25;;;;;;;66.30;26.50;;;;;;;1.41;100.00;99227.06;7392008;19;20420;-50
2021/12/10 06:08:59;;;;;;;68.87;27.00;;;;;;;1.28;100.00;99223.84;7398861;19;20852;-48
2021/12/10 06:11:29;;;;;;;65.93;25.45;;;;;;;1.29;100.00;99219.66;7393123;19;20618;-44
2021/12/10 06:13:59;;;;;;;66.37;25.10;;;;;;;1.06;100.00;99220.16;7397343;19;20128;-43
2021/12/10 06:16:28;;;;;;;73.17;26.53;;;;;;;1.07;100.00;99221.00;7391259;19;20433;-49
2021/12/10 06:18:58;;;;;;;65.50;27.55;;;;;;;1.09;100.00;99219.44;7398054;19;20387;-46
2021/12/10 06:21:29;;;;;;;68.32;27.08;;;;;;;0.88;100.00;99211.50;7395236;19;20189;-47
2021/12/10 06:24:01;;;;;;;64.40;24.77;;;;;;;0.83;100.00;99208.72;7398146;19;20171;-46
2021/12/10 06:26:30;;;;;;;70.03;26.73;;;;;;;0.98;100.00;99210.34;7391838;19;20703;-51
2021/12/10 06:29:00;;;;;;;61.60;24.20;;;;;;;0.87;100.00;99214.84;7398070;19;20191;-49
2021/12/10 06:31:30;;;;;;;82.18;27.15;;;;;;;0.88;100.00;99220.00;7392043;19;20186;-46
2021/12/10 06:34:00;;;;;;;65.65;25.15;;;;;;;0.88;100.00;99209.84;7396610;19;20513;-45
2021/12/10 06:36:30;;;;;;;74.23;27.40;;;;;;;0.74;100.00;99211.63;7390918;19;20202;-43
2021/12/10 06:39:04;;;;;;;63.60;25.27;;;;;;;0.97;100.00;99201.00;7397788;19;20447;-45
2021/12/10 06:41:34;;;;;;;68.63;25.77;;;;;;;0.64;100.00;99215.31;7391269;19;20594;-44
2021/12/10 06:44:06;;;;;;;67.88;25.02;;;;;;;0.62;100.00;99216.84;7397279;19;20175;-45
2021/12/10 06:46:36;;;;;;;66.55;24.25;;;;;;;0.69;100.00;99210.47;7395948;19;20203;-47
2021/12/10 06:49:06;;;;;;;75.63;28.30;;;;;;;0.73;100.00;99217.50;7404735;19;20181;-44
2021/12/10 06:51:35;;;;;;;68.15;26.58;;;;;;;0.78;100.00;99221.13;7399016;19;20475;-48
2021/12/10 06:54:08;;;;;;;71.50;26.55;;;;;;;0.65;100.00;99217.06;7403340;19;20119;-44
2021/12/10 06:56:37;;;;;;;75.88;26.80;;;;;;;1.12;100.00;99214.53;7397459;19;20200;-44
2021/12/10 06:59:09;;;;;;;64.80;26.35;;;;;;;1.25;100.00;99215.19;7404674;19;20242;-45
2021/12/10 07:01:40;;;;;;;73.63;26.13;;;;;;;1.25;100.00;99221.16;7397587;19;20473;-44
2021/12/10 07:04:12;;;;;;;70.28;25.67;;;;;;;1.33;100.00;99219.91;7404702;19;20119;-43
2021/12/10 07:06:44;;;;;;;74.70;28.00;;;;;;;1.17;100.00;99223.28;7397078;19;20186;-44
2021/12/10 07:09:21;;;;;;;66.80;26.40;;;;;;;1.15;100.00;99219.78;7404198;19;20384;-43
2021/12/10 07:11:53;;;;;;;86.72;27.00;;;;;;;1.50;100.00;99214.88;7402384;19;20433;-44
2021/12/10 07:14:23;;;;;;;65.67;24.77;;;;;;;0.98;100.00;99215.44;7403458;19;20123;-42
2021/12/10 07:16:52;;;;;;;71.65;25.50;;;;;;;0.68;100.00;99221.44;7401563;19;20519;-46
2021/12/10 07:19:22;;;;;;;74.75;27.10;;;;;;;0.50;100.00;99222.13;7403839;19;20119;-47
2021/12/10 07:21:51;;;;;;;74.07;27.02;;;;;;;0.44;100.00;99225.97;7401890;19;20235;-43
2021/12/10 07:24:27;;;;;;;74.07;27.75;;;;;;;0.33;100.00;99221.16;7399782;19;20211;-46
2021/12/10 07:26:57;;;;;;;70.05;24.85;;;;;;;0.30;100.00;99223.50;7400819;19;20182;-44
2021/12/10 07:29:27;;;;;;;70.47;26.80;;;;;;;0.29;100.00;99224.28;7398442;19;20125;-44
2021/12/10 07:31:56;;;;;;;78.72;28.30;;;;;;;0.38;100.00;99217.22;7401332;19;20513;-45
2021/12/10 07:34:26;;;;;;;71.53;25.80;;;;;;;0.30;100.00;99218.44;7398096;19;20457;-46
2021/12/10 07:36:55;;;;;;;76.57;27.42;;;;;;;0.25;100.00;99219.81;7400999;19;20161;-44
2021/12/10 07:39:28;;;;;;;71.53;27.27;;;;;;;0.25;100.00;99217.28;7398623;19;20521;-47
2021/12/10 07:42:00;;;;;;;73.70;27.15;;;;;;;0.28;100.00;99214.94;7401685;19;20123;-48
2021/12/10 07:44:30;;;;;;;73.60;26.98;;;;;;;0.28;100.00;99216.59;7397976;19;20185;-46
2021/12/10 07:47:02;;;;;;;68.15;26.40;;;;;;;0.29;100.00;99213.28;7400709;19;20161;-52
2021/12/10 07:49:32;;;;;;;70.10;25.05;;;;;;;0.29;100.00;99211.59;7397111;19;20123;-47
2021/12/10 07:52:04;;;;;;;77.65;28.33;;;;;;;0.27;100.00;99213.19;7402317;19;20180;-49
2021/12/10 07:54:36;;;;;;;69.63;25.92;;;;;;;0.23;100.00;99201.09;7397682;19;20120;-46
2021/12/10 07:57:06;;;;;;;72.40;26.00;;;;;;;0.23;100.00;99206.19;7400095;19;20442;-47
2021/12/10 07:59:36;;;;;;;76.30;27.73;;;;;;;0.24;100.00;99208.81;7397492;19;20119;-47
2021/12/10 08:02:06;;;;;;;73.85;25.67;;;;;;;0.24;100.00;99205.38;7401097;19;20119;-50
2021/12/10 08:04:35;;;;;;;73.70;27.35;;;;;;;0.32;100.00;99198.22;7397206;19;20131;-47
2021/12/10 08:07:06;;;;;;;74.38;25.98;;;;;;;0.27;100.00;99205.56;7398928;19;20434;-44
2021/12/10 08:09:38;;;;;;;79.10;27.23;;;;;;;0.24;100.00;99197.78;7397023;19;20655;-45
2021/12/10 08:12:09;;;;;;;75.95;28.15;;;;;;;0.24;100.00;99195.22;7401726;19;20139;-43
2021/12/10 08:14:38;;;;;;;75.80;27.73;;;;;;;0.26;100.00;99197.06;7397644;19;20171;-45
2021/12/10 08:17:08;;;;;;;72.53;28.35;;;;;;;0.31;100.00;99199.88;7400369;19;20481;-43
2021/12/10 08:19:37;;;;;;;85.80;27.80;;;;;;;0.28;100.00;99199.72;7396866;19;20141;-44
2021/12/10 08:22:07;;;;;;;85.30;28.13;;;;;;;0.30;100.00;99203.19;7401020;19;20187;-44
2021/12/10 08:24:41;;;;;;;81.63;29.60;;;;;;;0.38;100.00;99201.13;7396327;19;20382;-43
2021/12/10 08:27:10;;;;;;;78.50;26.83;;;;;;;0.34;100.00;99191.56;7399427;19;20210;-48
2021/12/10 08:29:42;;;;;;;76.55;27.00;;;;;;;0.35;100.00;99190.78;7397272;19;20179;-44
2021/12/10 08:32:16;;;;;;;77.10;27.70;;;;;;;0.33;100.00;99195.78;7401674;19;20170;-44
2021/12/10 08:34:45;;;;;;;72.72;27.77;;;;;;;0.31;100.00;99189.72;7396909;19;20404;-46
2021/12/10 08:37:16;;;;;;;70.63;26.15;;;;;;;0.29;100.00;99196.38;7399780;19;20155;-42
2021/12/10 08:39:50;;;;;;;73.70;27.33;;;;;;;0.33;100.00;99194.91;7395882;19;20447;-49
2021/12/10 08:42:19;;;;;;;69.25;25.15;;;;;;;0.29;100.00;99195.53;7400514;19;20123;-43
2021/12/10 08:44:49;;;;;;;86.07;29.65;;;;;;;0.33;100.00;99192.34;7394201;19;20205;-43
2021/12/10 08:47:19;;;;;;;75.63;28.05;;;;;;;0.35;100.00;99196.75;7399226;19;20231;-44
2021/12/10 08:49:48;;;;;;;78.75;29.00;;;;;;;0.40;100.00;99189.38;7395377;19;20208;-47
2021/12/10 08:52:19;;;;;;;75.80;27.88;;;;;;;0.50;100.00;99186.59;7400558;19;20119;-43
2021/12/10 08:54:51;;;;;;;67.45;26.90;;;;;;;0.50;100.00;99183.16;7394972;19;20194;-45
2021/12/10 08:57:22;;;;;;;80.50;27.65;;;;;;;0.45;100.00;99189.66;7398796;19;20159;-48
2021/12/10 08:59:52;;;;;;;75.55;26.95;;;;;;;0.40;100.00;99185.19;7395054;19;20189;-43
2021/12/10 09:02:22;;;;;;;79.88;26.95;;;;;;;0.49;100.00;99186.50;7398440;19;20184;-49
2021/12/10 09:04:51;;;;;;;73.97;27.83;;;;;;;0.56;100.00;99183.50;7394732;19;20194;-46
2021/12/10 09:07:21;;;;;;;71.18;27.45;;;;;;;0.58;100.00;99189.56;7397742;19;20476;-47
2021/12/10 09:09:53;;;;;;;85.57;30.25;;;;;;;0.63;100.00;99183.09;7393640;19;20184;-47
2021/12/10 09:12:27;;;;;;;73.63;27.05;;;;;;;0.67;100.00;99184.16;7400212;19;20119;-46
2021/12/10 09:15:00;;;;;;;66.15;25.00;;;;;;;0.66;100.00;99182.38;7394622;19;20726;-42
2021/12/10 09:17:32;;;;;;;64.82;24.40;;;;;;;0.59;100.00;99186.25;7398319;19;20456;-44
2021/12/10 09:20:05;;;;;;;65.63;25.63;;;;;;;0.61;100.00;99182.13;7394909;19;20190;-45
2021/12/10 09:22:34;;;;;;;66.67;25.80;;;;;;;0.67;100.00;99179.91;7397529;19;20123;-43
2021/12/10 09:25:07;;;;;;;69.65;24.85;;;;;;;0.86;100.00;99175.00;7394959;19;20419;-43
2021/12/10 09:27:37;;;;;;;72.83;25.00;;;;;;;0.95;100.00;99175.50;7397820;19;20431;-44
2021/12/10 09:30:09;;;;;;;61.27;23.83;;;;;;;1.02;100.00;99175.03;7394125;19;20419;-43
2021/12/10 09:32:39;;;;;;;64.10;24.17;;;;;;;0.99;100.00;99171.47;7398955;19;20451;-47
2021/12/10 09:35:10;;;;;;;66.72;23.98;;;;;;;0.99;100.00;99176.53;7394501;19;20427;-48
2021/12/10 09:37:45;;;;;;;63.60;22.63;;;;;;;0.93;100.00;99172.88;7398220;19;20166;-44
2021/12/10 09:40:20;;;;;;;66.03;21.77;;;;;;;0.82;100.00;99171.41;7393991;19;20186;-43
2021/12/10 09:42:51;;;;;;;70.25;26.52;;;;;;;0.94;100.00;99167.00;7396882;19;20451;-43
2021/12/10 09:45:24;;;;;;;65.88;24.00;;;;;;;1.00;100.00;99163.03;7393357;19;20186;-46
2021/12/10 09:47:53;;;;;;;63.65;23.30;;;;;;;0.93;100.00;99165.25;7397962;19;20207;-43
2021/12/10 09:50:25;;;;;;;59.65;23.45;;;;;;;0.88;100.00;99163.25;7393933;19;20203;-44
2021/12/10 09:52:55;;;;;;;62.28;23.70;;;;;;;0.95;100.00;99155.19;7398788;19;20119;-43
2021/12/10 09:55:27;;;;;;;53.50;22.25;;;;;;;0.97;100.00;99157.81;7392760;19;20186;-43
2021/12/10 09:57:58;;;;;;;57.37;21.10;;;;;;;0.97;100.00;99155.28;7397772;19;20162;-45
2021/12/10 10:00:33;;;;;;;55.80;21.88;;;;;;;1.08;100.00;99151.66;7391895;19;20431;-43
2021/12/10 10:03:03;;;;;;;53.70;20.08;;;;;;;1.00;100.00;99156.31;7398282;19;20130;-43
2021/12/10 10:05:34;;;;;;;51.90;21.75;;;;;;;1.02;100.00;99152.19;7392465;19;20186;-44
2021/12/10 10:08:10;;;;;;;52.50;20.60;;;;;;;1.08;100.00;99151.66;7396922;19;20491;-42
2021/12/10 10:10:47;;;;;;;54.20;20.33;;;;;;;1.05;100.00;99151.47;7392274;19;20253;-46
2021/12/10 10:13:17;;;;;;;52.00;20.10;;;;;;;1.08;100.00;99142.34;7398417;19;20412;-46
2021/12/10 10:15:47;;;;;;;52.42;22.05;;;;;;;1.12;100.00;99143.38;7392135;19;20190;-44
2021/12/10 10:18:20;;;;;;;50.67;20.67;;;;;;;1.13;100.00;99145.13;7396519;19;20151;-48
2021/12/10 10:20:54;;;;;;;61.37;20.27;;;;;;;1.18;100.00;99138.63;7397513;19;20200;-48
2021/12/10 10:23:24;;;;;;;45.93;19.00;;;;;;;1.15;100.00;99137.59;7408099;19;20455;-42
2021/12/10 10:25:59;;;;;;;51.28;20.25;;;;;;;1.18;100.00;99133.56;7399731;19;20886;-45
2021/12/10 10:28:29;;;;;;;48.10;20.52;;;;;;;1.24;100.00;99137.22;7402614;19;20543;-47
2021/12/10 10:31:04;;;;;;;45.08;17.85;;;;;;;1.26;100.00;99122.91;7400368;19;20178;-45
2021/12/10 10:33:35;;;;;;;48.53;19.58;;;;;;;1.30;100.00;99127.38;7405522;19;20234;-45
2021/12/10 10:36:16;;;;;;;49.57;19.20;;;;;;;1.24;100.00;99112.69;7399963;19;20596;-45
2021/12/10 10:38:47;;;;;;;43.05;18.35;;;;;;;1.31;100.00;99113.88;7403675;19;20446;-46
2021/12/10 10:41:21;;;;;;;54.53;20.07;;;;;;;1.35;100.00;99111.56;7404238;19;20250;-46
2021/12/10 10:43:51;;;;;;;48.72;19.33;;;;;;;1.40;100.00;99105.84;7403909;19;20391;-47
2021/12/10 10:46:21;;;;;;;44.87;17.90;;;;;;;1.43;100.00;99104.34;7398682;19;20197;-46
2021/12/10 10:48:50;;;;;;;49.47;19.00;;;;;;;1.42;100.00;99106.81;7404658;19;20384;-47
2021/12/10 10:51:27;;;;;;;50.88;20.23;;;;;;;1.43;100.00;99101.81;7399158;19;20410;-43
2021/12/10 10:53:57;;;;;;;55.85;19.75;;;;;;;1.48;100.00;99104.56;7404897;19;20389;-47
2021/12/10 10:56:32;;;;;;;44.90;17.67;;;;;;;1.58;100.00;99111.00;7397678;19;20182;-47
2021/12/10 10:59:06;;;;;;;48.67;19.43;;;;;;;1.56;100.00;99110.06;7404061;19;20399;-44
2021/12/10 11:01:40;;;;;;;48.53;18.57;;;;;;;1.58;100.00;99109.34;7399652;19;20471;-48
2021/12/10 11:04:27;;;;;;;65.77;26.00;;;;;;;1.64;100.00;99108.78;7402601;19;20392;-47
2021/12/10 11:07:00;;;;;;;46.53;18.90;;;;;;;1.68;100.00;99100.53;7401761;19;20418;-46
2021/12/10 11:09:32;;;;;;;58.47;26.20;;;;;;;1.81;100.00;99106.22;7398789;19;20459;-43
2021/12/10 11:12:07;;;;;;;66.07;26.00;;;;;;;1.83;100.00;99105.50;7403590;19;20672;-44
2021/12/10 11:14:41;;;;;;;68.67;28.67;;;;;;;1.92;100.00;99105.09;7398120;19;20453;-45
2021/12/10 11:17:12;;;;;;;59.47;22.97;;;;;;;1.87;100.00;99101.44;7402112;19;20436;-44
2021/12/10 11:20:01;;;;;;;82.20;32.87;;;;;;;1.86;100.00;99104.78;7398036;19;20407;-45
2021/12/10 11:22:32;;;;;;;56.27;23.93;;;;;;;1.87;100.00;99098.91;7403761;19;20390;-46
2021/12/10 11:25:06;;;;;;;53.33;20.63;;;;;;;1.81;100.00;99103.69;7396709;19;20409;-43
2021/12/10 11:27:40;;;;;;;52.17;20.90;;;;;;;1.78;100.00;99101.84;7401409;19;20747;-43
2021/12/10 11:30:14;;;;;;;50.13;21.17;;;;;;;1.85;100.00;99092.88;7397506;19;20433;-44
2021/12/10 11:32:47;;;;;;;61.63;27.17;;;;;;;1.94;100.00;99092.47;7401851;19;20444;-43
2021/12/10 11:35:19;;;;;;;68.00;27.37;;;;;;;2.06;100.00;99097.28;7398403;19;20680;-43
2021/12/10 11:37:54;;;;;;;55.03;22.90;;;;;;;2.04;100.00;99093.78;7401645;19;20426;-46
2021/12/10 11:40:41;;;;;;;53.40;23.40;;;;;;;2.09;100.00;99092.31;7397986;19;20415;-44
2021/12/10 11:43:33;;;;;;;54.20;21.40;;;;;;;2.02;100.00;99092.03;7403449;19;20373;-45
2021/12/10 11:46:27;;;;;;;59.00;23.63;;;;;;;2.16;100.00;99100.34;7396926;19;20407;-48